createdAt,value
2019-01-04T00:02:21.680Z,-2.10
2019-01-04T00:05:00.912Z,-2.20
2019-01-04T00:07:40.330Z,-2.30
2019-01-04T00:10:19.613Z,-2.30
2019-01-04T00:12:59.018Z,-2.40
2019-01-04T00:15:38.382Z,-2.40
2019-01-04T00:18:17.513Z,-2.40
2019-01-04T00:20:56.689Z,-2.40
2019-01-04T00:23:35.991Z,-2.40
2019-01-04T00:26:15.292Z,-2.40
2019-01-04T00:28:54.457Z,-2.40
2019-01-04T00:31:36.487Z,-2.40
2019-01-04T00:34:15.793Z,-2.40
2019-01-04T00:36:55.014Z,-2.30
2019-01-04T00:39:34.371Z,-2.40
2019-01-04T00:42:13.583Z,-2.50
2019-01-04T00:44:52.927Z,-2.50
2019-01-04T00:47:32.461Z,-2.50
2019-01-04T00:50:11.830Z,-2.50
2019-01-04T00:52:51.153Z,-2.50
2019-01-04T00:56:30.029Z,-2.50
2019-01-04T01:00:04.766Z,-2.50
2019-01-04T01:03:40.473Z,-2.50
2019-01-04T01:07:06.483Z,-2.50
2019-01-04T01:10:37.975Z,-2.60
2019-01-04T01:14:05.931Z,-2.50
2019-01-04T01:17:23.849Z,-2.60
2019-01-04T01:21:19.183Z,-2.50
2019-01-04T01:25:32.896Z,-2.50
2019-01-04T01:29:02.575Z,-2.50
2019-01-04T01:31:57.972Z,-2.60
2019-01-04T01:35:19.347Z,-2.60
2019-01-04T01:39:26.501Z,-2.60
2019-01-04T01:42:43.918Z,-2.60
2019-01-04T01:46:09.473Z,-2.60
2019-01-04T01:49:46.522Z,-2.60
2019-01-04T01:52:38.103Z,-2.60
2019-01-04T01:55:17.280Z,-2.60
2019-01-04T01:57:56.962Z,-2.60
2019-01-04T02:00:37.355Z,-2.50
2019-01-04T02:03:16.722Z,-2.50
2019-01-04T02:05:55.981Z,-2.50
2019-01-04T02:08:35.311Z,-2.50
2019-01-04T02:11:14.524Z,-2.40
2019-01-04T02:13:53.713Z,-2.30
2019-01-04T02:16:33.150Z,-2.30
2019-01-04T02:19:12.488Z,-2.40
2019-01-04T02:21:51.809Z,-2.40
2019-01-04T02:24:31.246Z,-2.40
2019-01-04T02:27:10.610Z,-2.40
2019-01-04T02:29:49.948Z,-2.40
2019-01-04T02:32:29.200Z,-2.40
2019-01-04T02:35:08.458Z,-2.40
2019-01-04T02:37:47.691Z,-2.40
2019-01-04T02:40:26.851Z,-2.40
2019-01-04T02:43:06.143Z,-2.40
2019-01-04T02:45:45.560Z,-2.40
2019-01-04T02:48:24.980Z,-2.30
2019-01-04T02:51:04.169Z,-2.30
2019-01-04T02:53:43.427Z,-2.20
2019-01-04T02:56:24.834Z,-2.20
2019-01-04T02:59:04.120Z,-2.10
2019-01-04T03:01:43.310Z,-2.00
2019-01-04T03:04:22.690Z,-1.90
2019-01-04T03:07:01.869Z,-1.90
2019-01-04T03:09:41.279Z,-1.80
2019-01-04T03:12:24.992Z,-1.80
2019-01-04T03:15:04.325Z,-1.70
2019-01-04T03:17:43.490Z,-1.60
2019-01-04T03:20:22.680Z,-1.60
2019-01-04T03:23:01.853Z,-1.60
2019-01-04T03:25:41.070Z,-1.50
2019-01-04T03:28:22.675Z,-1.50
2019-01-04T03:31:01.917Z,-1.40
2019-01-04T03:33:41.142Z,-1.40
2019-01-04T03:36:20.459Z,-1.40
2019-01-04T03:38:59.561Z,-1.40
2019-01-04T03:41:38.747Z,-1.40
2019-01-04T03:44:18.033Z,-1.40
2019-01-04T03:46:58.352Z,-1.30
2019-01-04T03:49:39.954Z,-1.20
2019-01-04T03:52:19.178Z,-1.20
2019-01-04T03:54:58.336Z,-1.10
2019-01-04T03:57:37.474Z,-1.10
2019-01-04T04:00:16.721Z,-1.10
2019-01-04T04:02:55.818Z,-1.10
2019-01-04T04:05:35.022Z,-1.10
2019-01-04T04:08:14.292Z,-1.00
2019-01-04T04:10:57.993Z,-1.00
2019-01-04T04:13:39.825Z,-1.00
2019-01-04T04:16:19.163Z,-1.00
2019-01-04T04:18:58.266Z,-1.10
2019-01-04T04:21:37.460Z,-1.10
2019-01-04T04:24:16.951Z,-1.10
2019-01-04T04:26:56.140Z,-1.10
2019-01-04T04:29:35.308Z,-1.00
2019-01-04T04:32:14.484Z,-0.90
2019-01-04T04:34:53.826Z,-1.00
2019-01-04T04:37:33.059Z,-0.90
2019-01-04T04:40:12.416Z,-0.90
2019-01-04T04:42:51.834Z,-0.90
2019-01-04T04:45:31.012Z,-0.80
2019-01-04T04:48:10.115Z,-0.80
2019-01-04T04:50:49.339Z,-0.70
2019-01-04T04:53:28.440Z,-0.70
2019-01-04T04:56:07.589Z,-0.70
2019-01-04T04:58:46.720Z,-0.60
2019-01-04T05:01:25.957Z,-0.60
2019-01-04T05:04:05.168Z,-0.60
2019-01-04T05:06:44.419Z,-0.60
2019-01-04T05:09:23.630Z,-0.60
2019-01-04T05:12:02.866Z,-0.70
2019-01-04T05:14:43.331Z,-0.60
2019-01-04T05:17:22.542Z,-0.50
2019-01-04T05:20:01.780Z,-0.50
2019-01-04T05:22:43.015Z,-0.50
2019-01-04T05:25:22.452Z,-0.50
2019-01-04T05:28:01.685Z,-0.50
2019-01-04T05:30:40.980Z,-0.50
2019-01-04T05:33:20.125Z,-0.50
2019-01-04T05:35:59.424Z,-0.50
2019-01-04T05:38:38.694Z,-0.40
2019-01-04T05:41:17.831Z,-0.40
2019-01-04T05:43:57.552Z,-0.40
2019-01-04T05:46:36.704Z,-0.40
2019-01-04T05:49:15.938Z,-0.30
2019-01-04T05:51:56.157Z,-0.40
2019-01-04T05:54:35.360Z,-0.40
2019-01-04T05:57:17.530Z,-0.30
2019-01-04T05:59:56.773Z,-0.30
2019-01-04T06:02:37.153Z,-0.30
2019-01-04T06:05:16.545Z,-0.30
2019-01-04T06:07:56.303Z,-0.20
2019-01-04T06:10:35.406Z,-0.10
2019-01-04T06:13:14.609Z,-0.20
2019-01-04T06:15:53.782Z,-0.20
2019-01-04T06:18:33.143Z,-0.10
2019-01-04T06:21:12.375Z,-0.10
2019-01-04T06:23:51.502Z,-0.10
2019-01-04T06:26:30.699Z,-0.10
2019-01-04T06:29:10.108Z,-0.10
2019-01-04T06:31:49.436Z,-0.10
2019-01-04T06:34:31.156Z,0.00
2019-01-04T06:37:10.412Z,-0.10
2019-01-04T06:39:49.525Z,-0.10
2019-01-04T06:42:28.689Z,-0.10
2019-01-04T06:45:08.341Z,-0.10
2019-01-04T06:47:48.315Z,-0.10
2019-01-04T06:50:27.617Z,0.00
2019-01-04T06:53:07.028Z,-0.10
2019-01-04T06:55:58.595Z,0.00
2019-01-04T06:58:37.910Z,0.00
2019-01-04T07:01:17.019Z,0.00
2019-01-04T07:03:56.277Z,0.10
2019-01-04T07:06:36.084Z,0.10
2019-01-04T07:09:16.073Z,0.10
2019-01-04T07:11:55.818Z,0.20
2019-01-04T07:14:35.064Z,0.20
2019-01-04T07:17:14.769Z,0.30
2019-01-04T07:19:54.593Z,0.40
2019-01-04T07:22:33.813Z,0.30
2019-01-04T07:25:13.525Z,0.40
2019-01-04T07:27:56.004Z,0.40
2019-01-04T07:30:35.702Z,0.50
2019-01-04T07:33:15.443Z,0.50
2019-01-04T07:35:54.596Z,0.60
2019-01-04T07:38:33.729Z,0.60
2019-01-04T07:41:13.057Z,0.70
2019-01-04T07:43:52.806Z,0.70
2019-01-04T07:46:32.631Z,0.90
2019-01-04T07:49:17.782Z,1.00
2019-01-04T07:51:57.533Z,1.00
2019-01-04T07:54:37.316Z,1.10
2019-01-04T07:57:16.530Z,1.20
2019-01-04T07:59:55.739Z,1.30
2019-01-04T08:02:44.919Z,1.30
2019-01-04T08:05:26.913Z,1.30
2019-01-04T08:08:06.246Z,1.30
2019-01-04T08:10:46.197Z,1.40
2019-01-04T08:13:25.474Z,1.30
2019-01-04T08:16:04.608Z,1.30
2019-01-04T08:18:44.373Z,1.30
2019-01-04T08:21:24.081Z,1.30
2019-01-04T08:24:03.799Z,1.40
2019-01-04T08:26:43.504Z,1.40
2019-01-04T08:29:23.196Z,1.50
2019-01-04T08:32:02.929Z,1.60
2019-01-04T08:34:42.846Z,1.60
2019-01-04T08:37:22.542Z,1.60
2019-01-04T08:40:01.702Z,1.60
2019-01-04T08:42:41.521Z,1.60
2019-01-04T08:45:21.317Z,1.60
2019-01-04T08:48:01.261Z,1.60
2019-01-04T08:50:40.513Z,1.70
2019-01-04T08:53:54.729Z,1.80
2019-01-04T08:56:38.642Z,1.70
2019-01-04T08:59:18.682Z,1.60
2019-01-04T09:01:58.401Z,1.70
2019-01-04T09:04:37.535Z,1.70
2019-01-04T09:07:17.003Z,1.80
2019-01-04T09:09:56.404Z,1.90
2019-01-04T09:12:35.681Z,2.00
2019-01-04T09:15:15.560Z,1.90
2019-01-04T09:17:54.780Z,2.00
2019-01-04T09:20:33.891Z,2.00
2019-01-04T09:23:13.195Z,1.90
2019-01-04T09:25:54.329Z,2.00
2019-01-04T09:28:33.617Z,2.00
2019-01-04T09:31:12.793Z,2.10
2019-01-04T09:33:51.946Z,2.10
2019-01-04T09:36:33.508Z,2.10
2019-01-04T09:39:12.706Z,2.10
2019-01-04T09:42:15.593Z,2.10
2019-01-04T09:44:54.841Z,2.00
2019-01-04T09:47:34.041Z,1.90
2019-01-04T09:50:13.989Z,1.90
2019-01-04T09:52:55.635Z,1.80
2019-01-04T09:55:35.404Z,1.90
2019-01-04T09:58:14.658Z,2.00
2019-01-04T10:00:54.401Z,2.10
2019-01-04T10:03:33.633Z,2.30
2019-01-04T10:06:12.930Z,2.40
2019-01-04T10:08:52.286Z,2.30
2019-01-04T10:11:31.543Z,2.30
2019-01-04T10:14:10.776Z,2.50
2019-01-04T10:16:50.927Z,2.50
2019-01-04T10:19:30.036Z,2.40
2019-01-04T10:22:09.393Z,2.50
2019-01-04T10:24:48.542Z,2.50
2019-01-04T10:27:29.115Z,2.50
2019-01-04T10:30:21.966Z,2.50
2019-01-04T10:33:01.193Z,2.60
2019-01-04T10:35:40.348Z,2.50
2019-01-04T10:38:19.467Z,2.50
2019-01-04T10:40:58.625Z,2.40
2019-01-04T10:43:37.834Z,2.40
2019-01-04T10:46:16.917Z,2.40
2019-01-04T10:48:56.115Z,2.30
2019-01-04T10:51:35.349Z,2.50
2019-01-04T10:54:14.536Z,2.40
2019-01-04T10:56:53.611Z,2.40
2019-01-04T10:59:32.904Z,2.30
2019-01-04T11:02:14.201Z,2.30
2019-01-04T11:04:55.100Z,2.60
2019-01-04T11:07:34.770Z,2.80
2019-01-04T11:10:14.745Z,2.60
2019-01-04T11:12:54.986Z,2.50
2019-01-04T11:15:34.120Z,2.50
2019-01-04T11:18:13.234Z,2.40
2019-01-04T11:20:52.421Z,2.40
2019-01-04T11:24:19.087Z,2.40
2019-01-04T11:27:08.250Z,2.50
2019-01-04T11:30:57.249Z,2.50
2019-01-04T11:34:04.000Z,2.40
2019-01-04T11:37:25.277Z,2.40
2019-01-04T11:40:42.187Z,2.50
2019-01-04T11:44:15.669Z,2.50
2019-01-04T11:47:27.622Z,2.50
2019-01-04T11:50:47.321Z,2.40
2019-01-04T11:53:27.076Z,2.40
2019-01-04T11:56:06.379Z,2.30
2019-01-04T11:58:45.611Z,2.30
2019-01-04T12:01:25.594Z,2.40
2019-01-04T12:04:04.872Z,2.40
2019-01-04T12:06:43.942Z,2.50
2019-01-04T12:09:23.187Z,2.40
2019-01-04T12:12:02.536Z,2.40
2019-01-04T12:14:41.770Z,2.50
2019-01-04T12:17:22.065Z,2.60
2019-01-04T12:20:03.176Z,2.90
2019-01-04T12:22:42.255Z,3.10
2019-01-04T12:25:21.401Z,2.90
2019-01-04T12:28:01.295Z,2.80
2019-01-04T12:30:41.291Z,2.90
2019-01-04T12:33:20.396Z,2.90
2019-01-04T12:35:59.630Z,2.90
2019-01-04T12:38:39.358Z,3.00
2019-01-04T12:41:18.464Z,3.00
2019-01-04T12:43:57.665Z,3.00
2019-01-04T12:46:37.400Z,3.10
2019-01-04T12:49:17.255Z,3.10
2019-01-04T12:51:56.422Z,2.90
2019-01-04T12:54:36.222Z,2.90
2019-01-04T12:57:16.025Z,2.90
2019-01-04T12:59:55.116Z,3.00
2019-01-04T13:02:35.053Z,3.00
2019-01-04T13:05:14.783Z,3.10
2019-01-04T13:07:54.652Z,3.00
2019-01-04T13:10:33.841Z,2.90
2019-01-04T13:13:32.229Z,3.00
2019-01-04T13:16:11.987Z,2.90
2019-01-04T13:18:51.528Z,2.70
2019-01-04T13:21:32.127Z,2.50
2019-01-04T13:24:11.303Z,2.50
2019-01-04T13:26:50.412Z,2.50
2019-01-04T13:29:31.134Z,2.50
2019-01-04T13:32:10.295Z,2.50
2019-01-04T13:34:49.975Z,2.50
2019-01-04T13:37:29.084Z,2.50
2019-01-04T13:40:08.366Z,2.50
2019-01-04T13:42:47.447Z,2.50
2019-01-04T13:45:26.603Z,2.50
2019-01-04T13:48:05.747Z,2.40
2019-01-04T13:50:44.866Z,2.40
2019-01-04T13:53:24.632Z,2.40
2019-01-04T13:56:04.402Z,2.40
2019-01-04T13:58:43.447Z,2.50
2019-01-04T14:01:22.579Z,2.50
2019-01-04T14:04:01.673Z,2.50
2019-01-04T14:06:40.801Z,2.50
2019-01-04T14:09:19.901Z,2.40
2019-01-04T14:11:59.624Z,2.40
2019-01-04T14:14:38.824Z,2.30
2019-01-04T14:17:18.515Z,2.30
2019-01-04T14:19:57.572Z,2.20
2019-01-04T14:22:39.777Z,2.20
2019-01-04T14:25:18.947Z,2.20
2019-01-04T14:27:57.994Z,2.20
2019-01-04T14:30:37.670Z,2.20
2019-01-04T14:33:16.808Z,2.20
2019-01-04T14:35:56.047Z,2.20
2019-01-04T14:38:35.210Z,2.20
2019-01-04T14:41:14.433Z,2.20
2019-01-04T14:43:53.570Z,2.20
2019-01-04T14:46:32.685Z,2.30
2019-01-04T14:49:14.740Z,2.20
2019-01-04T14:51:56.115Z,2.20
2019-01-04T14:54:35.741Z,2.20
2019-01-04T14:57:14.810Z,2.20
2019-01-04T14:59:54.042Z,2.20
2019-01-04T15:02:33.169Z,2.20
2019-01-04T15:05:13.127Z,2.20
2019-01-04T15:07:52.673Z,2.20
2019-01-04T15:10:35.521Z,2.10
2019-01-04T15:13:15.659Z,2.10
2019-01-04T15:15:55.357Z,2.10
2019-01-04T15:18:34.437Z,2.10
2019-01-04T15:21:13.770Z,2.10
2019-01-04T15:23:52.937Z,2.20
2019-01-04T15:26:33.053Z,2.20
2019-01-04T15:29:12.855Z,2.20
2019-01-04T15:31:54.745Z,2.20
2019-01-04T15:34:38.125Z,2.30
2019-01-04T15:37:17.980Z,2.30
2019-01-04T15:39:57.038Z,2.30
2019-01-04T15:42:36.328Z,2.30
2019-01-04T15:45:16.000Z,2.40
2019-01-04T15:47:55.132Z,2.40
2019-01-04T15:50:34.385Z,2.30
2019-01-04T15:53:13.470Z,2.30
2019-01-04T15:55:53.316Z,2.30
2019-01-04T15:58:32.372Z,2.30
2019-01-04T16:01:12.097Z,2.30
2019-01-04T16:03:53.502Z,2.40
2019-01-04T16:06:33.144Z,2.40
2019-01-04T16:09:12.757Z,2.40
2019-01-04T16:11:54.296Z,2.40
2019-01-04T16:14:33.341Z,2.40
2019-01-04T16:17:12.828Z,2.40
2019-01-04T16:19:59.567Z,2.40
2019-01-04T16:22:38.823Z,2.30
2019-01-04T16:25:22.049Z,2.30
2019-01-04T16:28:02.037Z,2.30
2019-01-04T16:30:41.544Z,2.30
2019-01-04T16:33:21.274Z,2.30
2019-01-04T16:36:00.366Z,2.30
2019-01-04T16:38:39.466Z,2.40
2019-01-04T16:41:30.689Z,2.30
2019-01-04T16:44:09.763Z,2.40
2019-01-04T16:46:49.633Z,2.40
2019-01-04T16:49:30.474Z,2.40
2019-01-04T16:52:11.305Z,2.40
2019-01-04T16:54:51.129Z,2.40
2019-01-04T16:57:30.278Z,2.50
2019-01-04T17:00:11.895Z,2.40
2019-01-04T17:02:51.530Z,2.50
2019-01-04T17:05:33.301Z,2.50
2019-01-04T17:08:13.548Z,2.40
2019-01-04T17:10:52.695Z,2.50
2019-01-04T17:13:32.459Z,2.40
2019-01-04T17:16:11.684Z,2.40
2019-01-04T17:18:51.219Z,2.40
2019-01-04T17:21:34.093Z,2.40
2019-01-04T17:24:13.747Z,2.30
2019-01-04T17:26:52.839Z,2.40
2019-01-04T17:29:32.055Z,2.40
2019-01-04T17:32:11.178Z,2.50
2019-01-04T17:34:52.952Z,2.40
2019-01-04T17:37:32.129Z,2.50
2019-01-04T17:40:11.591Z,2.50
2019-01-04T17:42:50.920Z,2.60
2019-01-04T17:45:30.286Z,2.60
2019-01-04T17:48:09.735Z,2.60
2019-01-04T17:50:48.925Z,2.60
2019-01-04T17:53:28.111Z,2.60
2019-01-04T17:56:07.323Z,2.60
2019-01-04T17:58:46.494Z,2.60
2019-01-04T18:01:25.554Z,2.60
2019-01-04T18:04:06.302Z,2.60
2019-01-04T18:06:45.504Z,2.60
2019-01-04T18:09:30.295Z,2.60
2019-01-04T18:12:09.493Z,2.60
2019-01-04T18:14:49.323Z,2.60
2019-01-04T18:17:28.555Z,2.70
2019-01-04T18:20:10.927Z,2.70
2019-01-04T18:22:50.820Z,2.70
2019-01-04T18:25:31.663Z,2.70
2019-01-04T18:28:10.794Z,2.70
2019-01-04T18:30:50.068Z,2.80
2019-01-04T18:33:29.455Z,2.70
2019-01-04T18:36:08.522Z,2.70
2019-01-04T18:38:48.121Z,2.70
2019-01-04T18:41:27.531Z,2.60
2019-01-04T18:44:06.761Z,2.70
2019-01-04T18:46:47.505Z,2.70
2019-01-04T18:49:31.155Z,2.70
2019-01-04T18:52:22.201Z,2.60
2019-01-04T18:55:03.108Z,2.60
2019-01-04T18:57:42.646Z,2.60
2019-01-04T19:00:22.434Z,2.70
2019-01-04T19:03:01.775Z,2.70
2019-01-04T19:05:41.684Z,2.70
2019-01-04T19:08:20.973Z,2.70
2019-01-04T19:11:03.376Z,2.80
2019-01-04T19:13:42.690Z,2.80
2019-01-04T19:16:22.435Z,2.80
2019-01-04T19:19:02.534Z,2.80
2019-01-04T19:21:44.659Z,2.90
2019-01-04T19:24:23.843Z,2.80
2019-01-04T19:27:03.931Z,2.80
2019-01-04T19:29:43.925Z,2.90
2019-01-04T19:32:25.099Z,2.90
2019-01-04T19:35:04.968Z,2.90
2019-01-04T19:37:44.181Z,2.90
2019-01-04T19:40:25.965Z,3.00
2019-01-04T19:43:05.127Z,3.00
2019-01-04T19:45:46.278Z,3.00
2019-01-04T19:48:26.725Z,3.00
2019-01-04T19:51:06.055Z,3.00
2019-01-04T19:53:47.601Z,3.00
2019-01-04T19:56:26.763Z,3.00
2019-01-04T19:59:06.519Z,3.00
2019-01-04T20:01:46.330Z,3.00
2019-01-04T20:04:25.426Z,3.00
2019-01-04T20:08:26.529Z,3.00
2019-01-04T20:12:35.841Z,3.00
2019-01-04T20:16:13.665Z,3.00
2019-01-04T20:19:23.860Z,3.00
2019-01-04T20:22:22.047Z,3.10
2019-01-04T20:25:21.402Z,3.10
2019-01-04T20:28:20.671Z,3.10
2019-01-04T20:31:18.344Z,3.10
2019-01-04T20:34:26.561Z,3.20
2019-01-04T20:37:28.077Z,3.20
2019-01-04T20:40:25.644Z,3.20
2019-01-04T20:43:22.868Z,3.20
2019-01-04T20:46:28.108Z,3.30
2019-01-04T20:49:26.283Z,3.30
2019-01-04T20:52:23.662Z,3.30
2019-01-04T20:55:25.800Z,3.40
2019-01-04T20:58:30.973Z,3.40
2019-01-04T21:01:29.971Z,3.40
2019-01-04T21:04:44.167Z,3.40
2019-01-04T21:07:44.413Z,3.50
2019-01-04T21:10:45.005Z,3.40
2019-01-04T21:13:43.940Z,3.50
2019-01-04T21:16:43.368Z,3.50
2019-01-04T21:19:52.477Z,3.50
2019-01-04T21:22:50.469Z,3.50
2019-01-04T21:25:50.462Z,3.50
2019-01-04T21:28:42.563Z,3.50
2019-01-04T21:31:39.764Z,3.50
2019-01-04T21:34:58.095Z,3.60
2019-01-04T21:37:55.441Z,3.60
2019-01-04T21:40:50.263Z,3.60
2019-01-04T21:43:57.645Z,3.60
2019-01-04T21:47:11.969Z,3.60
2019-01-04T21:50:10.697Z,3.60
2019-01-04T21:53:08.734Z,3.60
2019-01-04T21:56:13.383Z,3.60
2019-01-04T21:59:11.554Z,3.50
2019-01-04T22:02:06.906Z,3.60
2019-01-04T22:05:18.171Z,3.60
2019-01-04T22:08:20.359Z,3.60
2019-01-04T22:11:17.912Z,3.70
2019-01-04T22:14:29.695Z,3.70
2019-01-04T22:17:23.512Z,3.60
2019-01-04T22:20:30.018Z,3.60
2019-01-04T22:23:47.771Z,3.60
2019-01-04T22:26:55.556Z,3.70
2019-01-04T22:29:53.021Z,3.70
2019-01-04T22:32:52.509Z,3.70
2019-01-04T22:36:00.755Z,3.70
2019-01-04T22:39:05.452Z,3.80
2019-01-04T22:42:06.375Z,3.80
2019-01-04T22:45:01.806Z,3.70
2019-01-04T22:47:59.003Z,3.70
2019-01-04T22:50:59.743Z,3.70
2019-01-04T22:54:14.129Z,3.70
2019-01-04T22:57:11.536Z,3.70
2019-01-04T23:00:16.320Z,3.80
2019-01-04T23:03:30.063Z,3.80
2019-01-04T23:06:27.337Z,3.80
2019-01-04T23:09:21.841Z,3.70
2019-01-04T23:12:19.373Z,3.70
2019-01-04T23:15:20.002Z,3.60
2019-01-04T23:18:22.583Z,3.70
2019-01-04T23:22:08.401Z,3.60
2019-01-04T23:25:23.653Z,3.60
2019-01-04T23:28:31.782Z,3.60
2019-01-04T23:31:28.853Z,3.60
2019-01-04T23:34:27.079Z,3.60
2019-01-04T23:37:24.806Z,3.60
2019-01-04T23:40:22.582Z,3.60
2019-01-04T23:43:21.246Z,3.60
2019-01-04T23:46:11.918Z,3.50
2019-01-04T23:49:15.541Z,3.50
2019-01-04T23:52:21.779Z,3.50
2019-01-04T23:55:20.519Z,3.60
2019-01-04T23:58:19.511Z,3.50
